Main page
METAR-TAF:

METAR-TAF

Airports :

Lille, France

Lille Airport

latitude: 50-34N, longitude: 003-06E, elevation: 48 m

Current weather observation

The report was made 43 minutes ago, at 23:30 UTC
Wind 4 kt from the West/Southwest
Temperature 9°C
Humidity 93%
Pressure 1022 hPa
Visibility 10 km or more
no clouds below 1500 m and no cumulonimbus

METAR: LFQQ 192330Z AUTO 24004KT CAVOK 09/08 Q1022 NOSIG

Time: 02:13 (00:13 UTC)

Forecast

The report was made 1 hour and 13 minutes ago, at 23:00 UTC
Forecast valid from 20 at 00 UTC to 21 at 06 UTC
Wind 5 kt from the West/Southwest
Visibility: 8000 m
Scattered clouds at a height of 4500 ft
Probability 30%
from 20 at 03 UTC to 20 at 06 UTC
Visibility: 4000 m
mist
Probability 30% :
Temporary
from 20 at 14 UTC to 20 at 16 UTC
Visibility: 4000 m
rain showers

TAF: LFQQ 192300Z 2000/2106 25005KT 8000 SCT045 PROB30 2003/2006 4000 BR PROB30 TEMPO 2014/2016 4000 SHRA

Weather observations and forecasts of more than 4000 airports (METAR and TAF reports).

The available stations are represented by yellow and red dots on the map.

Hover mouse over dot to see the name of the station.

Then click to see weather observations and forecasts.

To change the map : click on the green buttons with a black cross to zoom in, on the green button with a dash to zoom out, or on the green arrows for adjacent maps.


METAR-TAF: